createdAt,value
2022-10-17T00:04:09.921Z,16.89
2022-10-17T00:09:11.697Z,16.99
2022-10-17T00:14:13.198Z,17.06
2022-10-17T00:19:14.680Z,17.14
2022-10-17T00:24:16.284Z,17.25
2022-10-17T00:29:17.766Z,17.20
2022-10-17T00:34:22.656Z,17.16
2022-10-17T00:39:26.082Z,17.11
2022-10-17T00:44:30.566Z,17.16
2022-10-17T00:49:35.689Z,17.12
2022-10-17T00:54:48.030Z,17.05
2022-10-17T00:59:53.571Z,16.99
2022-10-17T01:04:56.822Z,16.94
2022-10-17T01:09:58.549Z,16.83
2022-10-17T01:15:14.217Z,16.86
2022-10-17T01:20:57.926Z,16.95
2022-10-17T01:26:22.619Z,16.79
2022-10-17T01:31:48.706Z,16.79
2022-10-17T01:36:57.190Z,16.74
2022-10-17T01:42:08.983Z,16.79
2022-10-17T01:47:15.884Z,16.76
2022-10-17T01:52:26.675Z,16.56
2022-10-17T01:57:37.391Z,16.43
2022-10-17T02:02:39.931Z,16.47
2022-10-17T02:07:42.038Z,16.41
2022-10-17T02:12:53.232Z,16.41
2022-10-17T02:18:06.595Z,16.61
2022-10-17T02:23:24.166Z,16.71
2022-10-17T02:28:49.844Z,16.74
2022-10-17T02:34:01.038Z,16.69
2022-10-17T02:39:05.067Z,16.60
2022-10-17T02:44:08.571Z,16.69
2022-10-17T02:49:25.260Z,16.72
2022-10-17T02:54:45.099Z,16.75
2022-10-17T02:59:48.462Z,16.92
2022-10-17T03:04:50.358Z,17.05
2022-10-17T03:09:51.921Z,17.10
2022-10-17T03:14:53.486Z,17.25
2022-10-17T03:19:55.342Z,17.24
2022-10-17T03:24:57.028Z,17.12
2022-10-17T03:29:58.687Z,16.98
2022-10-17T03:35:00.474Z,16.91
2022-10-17T03:40:02.388Z,17.03
2022-10-17T03:45:05.200Z,17.05
2022-10-17T03:50:07.303Z,17.08
2022-10-17T03:55:11.533Z,17.14
2022-10-17T04:00:14.234Z,17.15
2022-10-17T04:05:15.786Z,17.07
2022-10-17T04:10:17.529Z,16.91
2022-10-17T04:15:19.428Z,16.79
2022-10-17T04:20:21.325Z,16.73
2022-10-17T04:25:23.713Z,16.71
2022-10-17T04:30:26.553Z,16.64
2022-10-17T04:35:28.116Z,16.53
2022-10-17T04:40:36.472Z,16.52
2022-10-17T04:45:38.271Z,16.30
2022-10-17T04:50:41.606Z,16.31
2022-10-17T04:55:56.972Z,16.28
2022-10-17T05:00:58.983Z,16.14
2022-10-17T05:06:09.743Z,16.30
2022-10-17T05:11:21.768Z,16.08
2022-10-17T05:16:26.849Z,16.15
2022-10-17T05:21:30.610Z,16.46
2022-10-17T05:26:32.576Z,16.38
2022-10-17T05:31:34.189Z,16.39
2022-10-17T05:36:35.819Z,16.73
2022-10-17T05:41:39.421Z,17.15
2022-10-17T05:46:41.586Z,17.24
2022-10-17T05:51:44.313Z,17.31
2022-10-17T05:56:50.980Z,17.30
2022-10-17T06:01:53.112Z,17.18
2022-10-17T06:06:55.384Z,17.17
2022-10-17T06:11:57.160Z,17.20
2022-10-17T06:16:58.835Z,17.23
2022-10-17T06:22:01.778Z,17.36
2022-10-17T06:27:08.054Z,17.21
2022-10-17T06:32:15.282Z,17.32
2022-10-17T06:37:20.670Z,17.58
2022-10-17T06:42:23.067Z,17.67
2022-10-17T06:48:02.870Z,17.62
2022-10-17T06:53:17.643Z,17.69
2022-10-17T06:58:42.253Z,17.70
2022-10-17T07:03:59.724Z,17.91
2022-10-17T07:09:03.321Z,18.39
2022-10-17T07:14:05.157Z,18.81
2022-10-17T07:19:08.207Z,18.87
2022-10-17T07:24:12.278Z,19.17
2022-10-17T07:29:19.430Z,19.55
2022-10-17T07:34:28.530Z,19.26
2022-10-17T07:39:30.435Z,18.79
2022-10-17T07:44:32.031Z,18.94
2022-10-17T07:49:34.280Z,19.30
2022-10-17T07:54:35.868Z,19.57
2022-10-17T07:59:38.038Z,19.52
2022-10-17T08:04:39.522Z,19.61
2022-10-17T08:09:41.129Z,19.62
2022-10-17T08:14:43.308Z,19.78
2022-10-17T08:19:44.900Z,20.05
2022-10-17T08:24:46.639Z,20.02
2022-10-17T08:29:48.167Z,20.17
2022-10-17T08:34:49.689Z,20.03
2022-10-17T08:39:51.248Z,20.30
2022-10-17T08:45:16.828Z,21.09
2022-10-17T08:50:29.339Z,20.99
2022-10-17T08:55:40.125Z,20.90
2022-10-17T09:00:54.208Z,20.51
2022-10-17T09:06:22.867Z,20.75
2022-10-17T09:11:33.120Z,21.26
2022-10-17T09:16:50.114Z,21.66
2022-10-17T09:22:22.808Z,21.69
2022-10-17T09:27:27.232Z,21.98
2022-10-17T09:32:29.191Z,21.91
2022-10-17T09:37:32.820Z,21.45
2022-10-17T09:42:35.436Z,21.55
2022-10-17T09:47:59.620Z,21.41
2022-10-17T09:53:13.759Z,21.48
2022-10-17T09:58:15.793Z,21.28
2022-10-17T10:03:20.476Z,21.43
2022-10-17T10:08:24.208Z,22.11
2022-10-17T10:13:26.893Z,22.45
2022-10-17T10:18:32.384Z,22.73
2022-10-17T10:23:34.785Z,22.70
2022-10-17T10:28:36.972Z,22.91
2022-10-17T10:33:45.926Z,22.77
2022-10-17T10:38:59.205Z,22.63
2022-10-17T10:44:03.988Z,22.48
2022-10-17T10:49:31.934Z,22.74
2022-10-17T10:59:50.263Z,23.35
2022-10-17T11:04:58.554Z,22.99
2022-10-17T11:10:07.328Z,23.05
2022-10-17T11:15:19.539Z,22.97
2022-10-17T11:20:34.481Z,22.64
2022-10-17T11:25:41.106Z,22.74
2022-10-17T11:30:57.529Z,22.70
2022-10-17T11:36:05.145Z,23.37
2022-10-17T11:41:11.277Z,23.58
2022-10-17T11:46:25.827Z,23.65
2022-10-17T11:57:13.978Z,23.83
2022-10-17T12:02:35.590Z,24.11
2022-10-17T12:07:46.657Z,23.89
2022-10-17T12:12:48.236Z,24.04
2022-10-17T12:17:58.950Z,23.87
2022-10-17T12:23:06.172Z,23.65
2022-10-17T12:28:30.614Z,23.46
2022-10-17T12:33:37.124Z,22.73
2022-10-17T12:38:38.767Z,22.27
2022-10-17T12:43:45.891Z,22.28
2022-10-17T12:49:02.098Z,22.46
2022-10-17T12:54:13.652Z,22.57
2022-10-17T12:59:21.049Z,22.92
2022-10-17T13:04:26.613Z,23.23
2022-10-17T13:09:29.400Z,23.41
2022-10-17T13:14:33.224Z,23.40
2022-10-17T13:19:44.262Z,23.23
2022-10-17T13:24:46.849Z,23.16
2022-10-17T13:29:48.842Z,23.07
2022-10-17T13:35:48.557Z,23.08
2022-10-17T13:41:01.361Z,23.08
2022-10-17T13:46:36.239Z,23.16
2022-10-17T13:51:36.252Z,23.27
2022-10-17T13:56:37.787Z,23.35
2022-10-17T14:01:39.491Z,23.36
2022-10-17T14:06:49.317Z,23.69
2022-10-17T14:12:12.892Z,23.85
2022-10-17T14:17:28.566Z,23.91
2022-10-17T14:22:33.537Z,24.33
2022-10-17T14:27:37.566Z,24.51
2022-10-17T14:32:42.933Z,24.37
2022-10-17T14:37:47.295Z,24.08
2022-10-17T14:42:49.532Z,23.63
2022-10-17T14:47:53.660Z,23.57
2022-10-17T14:53:02.924Z,23.45
2022-10-17T14:58:19.144Z,23.45
2022-10-17T15:03:21.193Z,23.45
2022-10-17T15:08:24.027Z,23.43
2022-10-17T15:13:28.301Z,23.47
2022-10-17T15:18:31.097Z,23.49
2022-10-17T15:23:32.924Z,23.47
2022-10-17T15:28:34.659Z,23.36
2022-10-17T15:33:36.201Z,23.28
2022-10-17T15:38:37.735Z,23.20
2022-10-17T15:43:40.739Z,22.97
2022-10-17T15:48:42.472Z,22.89
2022-10-17T15:53:44.036Z,22.90
2022-10-17T15:58:45.731Z,22.94
2022-10-17T16:03:47.421Z,22.90
2022-10-17T16:08:49.874Z,22.94
2022-10-17T16:13:53.968Z,22.99
2022-10-17T16:18:55.765Z,22.97
2022-10-17T16:23:57.929Z,22.79
2022-10-17T16:28:59.755Z,22.69
2022-10-17T16:34:03.106Z,22.58
2022-10-17T16:39:05.009Z,22.46
2022-10-17T16:44:08.666Z,22.28
2022-10-17T16:49:10.261Z,22.24
2022-10-17T16:54:11.793Z,22.00
2022-10-17T16:59:13.326Z,21.76
2022-10-17T17:04:15.138Z,21.61
2022-10-17T17:09:16.678Z,21.35
2022-10-17T17:14:18.304Z,21.15
2022-10-17T17:19:20.023Z,20.91
2022-10-17T17:24:21.726Z,20.73
2022-10-17T17:29:24.583Z,20.57
2022-10-17T17:34:26.259Z,20.44
2022-10-17T17:39:27.758Z,20.33
2022-10-17T17:44:29.290Z,20.32
2022-10-17T17:49:30.785Z,20.22
2022-10-17T17:54:33.041Z,20.10
2022-10-17T17:59:38.358Z,20.04
2022-10-17T18:04:40.028Z,19.90
2022-10-17T18:09:41.538Z,19.85
2022-10-17T18:14:43.200Z,19.74
2022-10-17T18:19:44.706Z,19.64
2022-10-17T18:24:46.311Z,19.64
2022-10-17T18:29:47.923Z,19.64
2022-10-17T18:34:49.497Z,19.63
2022-10-17T18:39:51.128Z,19.52
2022-10-17T18:44:52.669Z,19.33
2022-10-17T18:49:54.191Z,19.16
2022-10-17T18:54:55.712Z,19.02
2022-10-17T18:59:57.252Z,18.89
2022-10-17T19:04:58.832Z,18.85
2022-10-17T19:10:00.385Z,18.80
2022-10-17T19:15:01.936Z,18.81
2022-10-17T19:20:03.840Z,18.73
2022-10-17T19:25:05.789Z,18.73
2022-10-17T19:30:08.111Z,18.71
2022-10-17T19:35:09.722Z,18.66
2022-10-17T19:40:12.221Z,18.67
2022-10-17T19:45:13.803Z,18.71
2022-10-17T19:50:15.611Z,18.71
2022-10-17T19:55:17.571Z,18.59
2022-10-17T20:00:19.120Z,18.52
2022-10-17T20:05:23.575Z,18.47
2022-10-17T20:10:27.511Z,18.40
2022-10-17T20:15:29.186Z,18.34
2022-10-17T20:20:30.888Z,18.27
2022-10-17T20:25:32.394Z,18.15
2022-10-17T20:30:33.900Z,18.17
2022-10-17T20:35:40.928Z,18.07
2022-10-17T20:40:43.076Z,18.07
2022-10-17T20:45:51.180Z,18.01
2022-10-17T20:50:53.943Z,17.91
2022-10-17T20:56:07.833Z,17.80
2022-10-17T21:01:10.679Z,17.88
2022-10-17T21:06:12.791Z,17.90
2022-10-17T21:11:20.356Z,17.91
2022-10-17T21:16:22.355Z,17.85
2022-10-17T21:21:29.944Z,17.55
2022-10-17T21:26:36.402Z,17.58
2022-10-17T21:31:38.703Z,17.66
2022-10-17T21:36:40.747Z,17.61
2022-10-17T21:41:43.522Z,17.66
2022-10-17T21:46:45.874Z,17.38
2022-10-17T21:51:48.176Z,17.48
2022-10-17T21:56:50.445Z,17.48
2022-10-17T22:01:51.994Z,17.44
2022-10-17T22:06:53.523Z,17.43
2022-10-17T22:11:56.379Z,17.34
2022-10-17T22:16:57.976Z,17.26
2022-10-17T22:21:59.462Z,17.31
2022-10-17T22:27:00.930Z,17.31
2022-10-17T22:32:02.415Z,17.35
2022-10-17T22:37:03.947Z,17.30
2022-10-17T22:42:05.426Z,17.28
2022-10-17T22:47:06.965Z,17.17
2022-10-17T22:52:08.493Z,17.19
2022-10-17T22:57:09.992Z,17.18
2022-10-17T23:02:11.516Z,17.19
2022-10-17T23:07:13.033Z,17.15
2022-10-17T23:12:14.514Z,17.11
2022-10-17T23:17:16.082Z,17.19
2022-10-17T23:22:17.581Z,17.24
2022-10-17T23:27:19.146Z,17.28
2022-10-17T23:32:21.062Z,17.31
2022-10-17T23:37:22.539Z,17.31
2022-10-17T23:42:24.105Z,17.36
2022-10-17T23:47:25.714Z,17.27
2022-10-17T23:52:27.410Z,17.29
2022-10-17T23:57:29.106Z,17.30
